Time;durP1;ratioP1;P1;durP2;ratioP2;P2;SDS_P1;SDS_P2;PMS_P1;PMS_P2;Temp;Humidity;BMP_temperature;BMP_pressure;BME280_temperature;BME280_humidity;BME280_pressure;Samples;Min_cycle;Max_cycle;Signal;HPM_P1;HPM_P2
2023/12/25 00:00:26;;;;;;;6.47;1.17;;;;;;;;;;5076693;28;20208;-72
2023/12/25 00:02:53;;;;;;;3.20;1.13;;;;;;;;;;5092090;28;20182;-72
2023/12/25 00:05:21;;;;;;;4.03;1.00;;;;;;;;;;5076662;28;20494;-72
2023/12/25 00:07:47;;;;;;;3.20;1.00;;;;;;;;;;5076758;28;20198;-72
2023/12/25 00:10:14;;;;;;;3.40;1.00;;;;;;;;;;5076592;28;20183;-72
2023/12/25 00:12:41;;;;;;;8.27;1.30;;;;;;;;;;5074494;28;20231;-71
2023/12/25 00:15:08;;;;;;;2.97;0.80;;;;;;;;;;5074897;28;20186;-70
2023/12/25 00:17:35;;;;;;;4.80;1.10;;;;;;;;;;5076167;28;20206;-71
2023/12/25 00:20:03;;;;;;;3.77;0.90;;;;;;;;;;5058862;28;20660;-71
2023/12/25 00:22:30;;;;;;;2.63;0.80;;;;;;;;;;5075330;28;20273;-71
2023/12/25 00:24:57;;;;;;;5.93;1.00;;;;;;;;;;5076420;28;20182;-71
2023/12/25 00:27:23;;;;;;;5.87;1.00;;;;;;;;;;5076280;28;20186;-71
2023/12/25 00:29:50;;;;;;;5.23;1.57;;;;;;;;;;5074862;28;20194;-71
2023/12/25 00:36:11;;;;;;;4.37;0.77;;;;;;;;;;5055842;28;20213;-70
2023/12/25 00:38:38;;;;;;;4.57;0.80;;;;;;;;;;5071457;28;20209;-69
2023/12/25 00:41:04;;;;;;;2.60;0.90;;;;;;;;;;5071431;28;20191;-70
2023/12/25 00:43:31;;;;;;;2.77;0.93;;;;;;;;;;5038186;28;20183;-71
2023/12/25 00:45:58;;;;;;;5.20;1.00;;;;;;;;;;5055885;28;20183;-71
2023/12/25 00:48:25;;;;;;;2.83;0.87;;;;;;;;;;5055579;28;20294;-70
2023/12/25 00:50:51;;;;;;;5.57;1.03;;;;;;;;;;5054681;28;20178;-71
2023/12/25 00:53:35;;;;;;;8.07;1.00;;;;;;;;;;5071047;28;20166;-70
2023/12/25 00:56:04;;;;;;;4.23;0.90;;;;;;;;;;5054839;28;20684;-71
2023/12/25 00:58:31;;;;;;;7.33;1.40;;;;;;;;;;5072277;28;20190;-71
2023/12/25 01:00:57;;;;;;;2.63;0.60;;;;;;;;;;5057594;28;20596;-71
2023/12/25 01:03:24;;;;;;;4.17;0.80;;;;;;;;;;5041153;28;20197;-71
2023/12/25 01:05:52;;;;;;;4.93;0.97;;;;;;;;;;5075739;28;20186;-70
2023/12/25 01:08:18;;;;;;;4.73;1.40;;;;;;;;;;5075165;28;20700;-70
2023/12/25 01:10:45;;;;;;;4.67;1.03;;;;;;;;;;5040972;28;20316;-70
2023/12/25 01:52:28;;;;;;;5.13;0.90;;;;;;;;;;5054289;28;20173;-71
2023/12/25 01:54:56;;;;;;;13.90;1.47;;;;;;;;;;5037206;28;20642;-71
2023/12/25 01:57:23;;;;;;;6.17;1.13;;;;;;;;;;5054774;28;20214;-72
2023/12/25 01:59:51;;;;;;;9.27;1.70;;;;;;;;;;5020248;28;20249;-71
2023/12/25 02:02:20;;;;;;;4.80;0.70;;;;;;;;;;5036301;28;20194;-71
2023/12/25 02:04:47;;;;;;;7.63;1.30;;;;;;;;;;5037221;28;20214;-72
2023/12/25 02:07:15;;;;;;;13.50;2.00;;;;;;;;;;5020385;28;20630;-72
2023/12/25 02:09:46;;;;;;;10.27;2.20;;;;;;;;;;5036432;28;20195;-72
2023/12/25 02:12:13;;;;;;;10.43;1.97;;;;;;;;;;5036648;28;20518;-72
2023/12/25 02:14:40;;;;;;;11.27;2.10;;;;;;;;;;5036427;28;20638;-71
2023/12/25 02:17:07;;;;;;;10.70;2.10;;;;;;;;;;5019734;28;20302;-70
2023/12/25 02:19:37;;;;;;;11.57;2.30;;;;;;;;;;5036096;28;20198;-71
2023/12/25 02:22:06;;;;;;;9.90;2.67;;;;;;;;;;5036254;28;20589;-71
2023/12/25 02:24:35;;;;;;;10.10;1.70;;;;;;;;;;5020064;28;20681;-71
2023/12/25 02:27:19;;;;;;;11.33;1.83;;;;;;;;;;5053962;28;20534;-72
2023/12/25 02:29:46;;;;;;;24.73;2.67;;;;;;;;;;5036183;28;20503;-71
2023/12/25 02:32:12;;;;;;;16.10;2.77;;;;;;;;;;5036361;28;20186;-71
2023/12/25 02:34:39;;;;;;;16.13;2.67;;;;;;;;;;5036221;28;20193;-72
2023/12/25 02:37:06;;;;;;;15.83;3.30;;;;;;;;;;5053769;28;20195;-72
2023/12/25 02:39:33;;;;;;;10.70;1.73;;;;;;;;;;5019581;28;20187;-71
2023/12/25 02:42:00;;;;;;;16.23;2.80;;;;;;;;;;5053493;28;20526;-72
2023/12/25 02:44:27;;;;;;;12.93;2.50;;;;;;;;;;5053835;28;20221;-71
2023/12/25 02:46:54;;;;;;;17.30;2.77;;;;;;;;;;5052403;28;20198;-72
2023/12/25 02:49:21;;;;;;;23.00;3.10;;;;;;;;;;5036614;28;20202;-71
2023/12/25 02:51:48;;;;;;;19.80;3.00;;;;;;;;;;5052005;28;20225;-71
2023/12/25 02:54:14;;;;;;;17.50;3.27;;;;;;;;;;5039822;28;20196;-70
2023/12/25 02:56:41;;;;;;;10.03;1.93;;;;;;;;;;5055525;28;20197;-71
2023/12/25 02:59:08;;;;;;;22.27;3.00;;;;;;;;;;5073734;28;20190;-72
2023/12/25 03:01:34;;;;;;;14.97;2.80;;;;;;;;;;5055726;28;20626;-72
2023/12/25 03:04:01;;;;;;;19.60;2.73;;;;;;;;;;5039355;28;20240;-71
2023/12/25 03:06:28;;;;;;;15.87;3.03;;;;;;;;;;5055602;28;20239;-71
2023/12/25 03:08:55;;;;;;;12.07;1.87;;;;;;;;;;5055527;28;20193;-71
2023/12/25 03:11:22;;;;;;;13.07;3.23;;;;;;;;;;5055480;28;20190;-71
2023/12/25 03:13:49;;;;;;;22.87;3.20;;;;;;;;;;5039483;28;20182;-71
2023/12/25 03:16:17;;;;;;;11.07;2.40;;;;;;;;;;5055413;28;20216;-72
2023/12/25 03:18:43;;;;;;;23.60;3.07;;;;;;;;;;5038733;28;20221;-71
2023/12/25 03:21:10;;;;;;;4.60;1.40;;;;;;;;;;5055287;28;20284;-71
2023/12/25 03:23:37;;;;;;;16.57;3.20;;;;;;;;;;5055899;28;20186;-72
2023/12/25 03:26:04;;;;;;;19.67;2.73;;;;;;;;;;5055791;28;20186;-71
2023/12/25 03:28:31;;;;;;;17.53;2.90;;;;;;;;;;5072321;28;20178;-71
2023/12/25 03:30:58;;;;;;;19.27;3.00;;;;;;;;;;5056153;28;20178;-71
2023/12/25 03:33:25;;;;;;;14.07;2.63;;;;;;;;;;5055283;28;20197;-72
2023/12/25 03:35:52;;;;;;;15.80;2.37;;;;;;;;;;5055386;28;20182;-71
2023/12/25 03:38:19;;;;;;;16.83;3.63;;;;;;;;;;5055410;28;20218;-72
2023/12/25 03:40:46;;;;;;;12.67;2.27;;;;;;;;;;5073335;28;20182;-71
2023/12/25 03:43:12;;;;;;;14.97;2.50;;;;;;;;;;5073451;28;20560;-71
2023/12/25 03:45:39;;;;;;;9.03;2.03;;;;;;;;;;5055236;28;20244;-72
2023/12/25 03:48:06;;;;;;;11.27;1.87;;;;;;;;;;5055202;28;20251;-71
2023/12/25 03:50:33;;;;;;;12.57;2.30;;;;;;;;;;5055227;28;20218;-71
2023/12/25 03:52:59;;;;;;;15.10;2.83;;;;;;;;;;5071989;28;20277;-71
2023/12/25 03:55:26;;;;;;;14.80;2.90;;;;;;;;;;5073113;28;20182;-71
2023/12/25 03:57:53;;;;;;;11.93;2.33;;;;;;;;;;5071776;28;20206;-71
2023/12/25 04:00:37;;;;;;;16.23;2.43;;;;;;;;;;5058369;28;20209;-72
2023/12/25 04:03:04;;;;;;;16.33;3.40;;;;;;;;;;5075257;28;20235;-71
2023/12/25 04:05:32;;;;;;;4.77;1.03;;;;;;;;;;5074770;28;20218;-71
2023/12/25 04:07:59;;;;;;;12.70;2.00;;;;;;;;;;5076535;28;20216;-71
2023/12/25 04:10:28;;;;;;;13.43;2.53;;;;;;;;;;5058175;28;20198;-71
2023/12/25 04:12:55;;;;;;;10.00;1.93;;;;;;;;;;5058526;28;20222;-71
2023/12/25 04:15:22;;;;;;;12.00;1.73;;;;;;;;;;5058713;28;20178;-71
2023/12/25 04:17:48;;;;;;;10.50;1.73;;;;;;;;;;5058559;28;20665;-73
2023/12/25 04:20:15;;;;;;;19.73;2.23;;;;;;;;;;5076499;28;20182;-73
2023/12/25 04:22:42;;;;;;;10.20;2.20;;;;;;;;;;5076189;28;20261;-70
2023/12/25 04:25:11;;;;;;;10.60;1.40;;;;;;;;;;5058573;28;20654;-72
2023/12/25 04:27:41;;;;;;;14.50;2.40;;;;;;;;;;5076418;28;20198;-73
2023/12/25 04:30:08;;;;;;;11.83;1.70;;;;;;;;;;5058151;28;20193;-71
2023/12/25 04:32:35;;;;;;;8.30;1.77;;;;;;;;;;5058285;28;20572;-73
2023/12/25 04:35:19;;;;;;;9.50;1.63;;;;;;;;;;5076196;28;20204;-71
2023/12/25 04:37:47;;;;;;;11.90;1.57;;;;;;;;;;5050459;28;20296;-73
2023/12/25 04:40:13;;;;;;;11.40;1.87;;;;;;;;;;5074672;28;20198;-70
2023/12/25 04:42:40;;;;;;;11.70;1.60;;;;;;;;;;5057887;28;20657;-72
2023/12/25 04:45:08;;;;;;;8.93;2.10;;;;;;;;;;5057946;28;20243;-71
2023/12/25 04:47:34;;;;;;;11.57;2.13;;;;;;;;;;5057703;28;20309;-71
2023/12/25 04:50:01;;;;;;;11.93;1.57;;;;;;;;;;5057714;28;20285;-71
2023/12/25 04:52:28;;;;;;;7.23;1.63;;;;;;;;;;5042135;28;20240;-71
2023/12/25 04:54:56;;;;;;;11.93;2.43;;;;;;;;;;5057711;28;20205;-71
2023/12/25 04:57:23;;;;;;;4.00;0.80;;;;;;;;;;5041116;28;20213;-70
2023/12/25 04:59:49;;;;;;;7.53;1.33;;;;;;;;;;5075568;28;20186;-73
2023/12/25 05:02:16;;;;;;;5.10;1.73;;;;;;;;;;5041110;28;20186;-73
2023/12/25 05:04:43;;;;;;;14.20;2.20;;;;;;;;;;5075620;28;20248;-71
2023/12/25 05:07:10;;;;;;;10.27;1.90;;;;;;;;;;5075554;28;20182;-70
2023/12/25 05:09:36;;;;;;;8.80;1.40;;;;;;;;;;5075477;28;20185;-73
2023/12/25 05:12:03;;;;;;;3.17;1.37;;;;;;;;;;5056814;28;20284;-72
2023/12/25 05:14:30;;;;;;;17.50;2.43;;;;;;;;;;5074876;28;20632;-71
2023/12/25 05:16:56;;;;;;;9.77;2.63;;;;;;;;;;5040885;28;20609;-73
2023/12/25 05:19:23;;;;;;;12.20;1.60;;;;;;;;;;5057557;28;20187;-71
2023/12/25 05:21:50;;;;;;;10.60;1.77;;;;;;;;;;5074189;28;20669;-72
2023/12/25 05:24:34;;;;;;;10.67;2.27;;;;;;;;;;5073949;28;20181;-71
2023/12/25 05:27:01;;;;;;;14.87;2.57;;;;;;;;;;5057438;28;20192;-71
2023/12/25 05:29:28;;;;;;;11.67;1.50;;;;;;;;;;5090697;28;20282;-71
2023/12/25 05:31:55;;;;;;;14.17;2.30;;;;;;;;;;5037050;28;20179;-72
2023/12/25 05:34:21;;;;;;;13.47;2.57;;;;;;;;;;5037767;28;20203;-71
2023/12/25 05:37:06;;;;;;;11.27;1.60;;;;;;;;;;5045460;28;20166;-71
2023/12/25 05:39:32;;;;;;;9.23;1.87;;;;;;;;;;5057052;28;20182;-71
2023/12/25 05:41:59;;;;;;;10.40;1.93;;;;;;;;;;5057106;28;20247;-71
2023/12/25 05:44:26;;;;;;;14.27;2.07;;;;;;;;;;5074417;28;20629;-71
2023/12/25 05:46:52;;;;;;;14.67;2.03;;;;;;;;;;5074378;28;20190;-72
2023/12/25 05:49:19;;;;;;;11.17;2.17;;;;;;;;;;5074326;28;20201;-71
2023/12/25 05:51:46;;;;;;;9.13;1.83;;;;;;;;;;5024296;28;20222;-70
2023/12/25 05:54:12;;;;;;;8.67;1.83;;;;;;;;;;5036628;28;20634;-71
2023/12/25 05:56:39;;;;;;;14.80;2.20;;;;;;;;;;5054261;28;20570;-72
2023/12/25 05:59:06;;;;;;;6.97;1.47;;;;;;;;;;5054261;28;20207;-72
2023/12/25 06:01:33;;;;;;;10.23;1.53;;;;;;;;;;5020634;28;20642;-71
2023/12/25 06:04:01;;;;;;;12.50;2.30;;;;;;;;;;5004199;28;20218;-72
2023/12/25 06:06:28;;;;;;;10.13;1.40;;;;;;;;;;5054061;28;20175;-71
2023/12/25 06:08:55;;;;;;;14.80;2.43;;;;;;;;;;5033153;28;20187;-71
2023/12/25 06:11:22;;;;;;;9.17;2.20;;;;;;;;;;5031046;28;20187;-71
2023/12/25 06:13:49;;;;;;;10.37;1.87;;;;;;;;;;5036193;28;20660;-71
2023/12/25 06:16:15;;;;;;;10.07;1.73;;;;;;;;;;5036304;28;20193;-72
2023/12/25 06:18:42;;;;;;;9.07;1.40;;;;;;;;;;5053857;28;20535;-72
2023/12/25 06:21:09;;;;;;;8.67;1.60;;;;;;;;;;5036142;28;20183;-71
2023/12/25 06:23:36;;;;;;;13.40;2.43;;;;;;;;;;5035835;28;20187;-71
2023/12/25 06:26:03;;;;;;;9.77;1.90;;;;;;;;;;5036413;28;20179;-71
2023/12/25 06:28:30;;;;;;;12.53;1.83;;;;;;;;;;5054024;28;20178;-72
2023/12/25 06:30:57;;;;;;;12.00;1.63;;;;;;;;;;5036117;28;20175;-70
2023/12/25 06:33:24;;;;;;;9.20;2.17;;;;;;;;;;5036969;28;20194;-71
2023/12/25 06:35:51;;;;;;;9.23;1.30;;;;;;;;;;5052668;28;20281;-71
2023/12/25 06:38:18;;;;;;;9.83;2.00;;;;;;;;;;5053832;28;20213;-72
2023/12/25 06:41:03;;;;;;;7.53;2.13;;;;;;;;;;5024914;28;20498;-72
2023/12/25 06:43:30;;;;;;;12.57;2.70;;;;;;;;;;5019722;28;20592;-71
2023/12/25 06:45:57;;;;;;;8.00;1.80;;;;;;;;;;5036494;28;20221;-72
2023/12/25 06:48:24;;;;;;;11.60;2.07;;;;;;;;;;5054706;28;20285;-71
2023/12/25 06:50:51;;;;;;;11.70;2.03;;;;;;;;;;5063013;28;20209;-72
2023/12/25 06:53:18;;;;;;;9.53;1.97;;;;;;;;;;5030336;28;20202;-71
2023/12/25 06:55:45;;;;;;;9.73;1.30;;;;;;;;;;5053625;28;20266;-72
2023/12/25 06:58:12;;;;;;;5.57;1.57;;;;;;;;;;5069103;28;20222;-71
2023/12/25 07:00:39;;;;;;;16.27;2.73;;;;;;;;;;5069353;28;20240;-71
2023/12/25 07:03:06;;;;;;;10.90;2.03;;;;;;;;;;5069304;28;20183;-71
2023/12/25 07:05:34;;;;;;;5.73;1.43;;;;;;;;;;5053647;28;20342;-72
2023/12/25 07:08:02;;;;;;;11.33;2.07;;;;;;;;;;5069166;28;20195;-72
2023/12/25 07:10:28;;;;;;;8.30;2.23;;;;;;;;;;5069454;28;20191;-71
2023/12/25 07:12:55;;;;;;;8.47;1.70;;;;;;;;;;5069331;28;20186;-71
2023/12/25 07:15:39;;;;;;;8.37;1.90;;;;;;;;;;5067077;28;20167;-71
2023/12/25 07:18:06;;;;;;;9.60;1.33;;;;;;;;;;5052607;28;20198;-71
2023/12/25 07:20:33;;;;;;;8.17;1.40;;;;;;;;;;5069594;28;20225;-71
2023/12/25 07:23:00;;;;;;;12.10;1.67;;;;;;;;;;5069297;28;20199;-72
2023/12/25 07:25:26;;;;;;;14.00;3.03;;;;;;;;;;5069512;28;20194;-71
2023/12/25 07:27:53;;;;;;;13.67;2.33;;;;;;;;;;5053762;28;20187;-72
2023/12/25 07:30:21;;;;;;;13.20;1.60;;;;;;;;;;5069189;28;20654;-72
2023/12/25 07:32:47;;;;;;;12.53;2.03;;;;;;;;;;5053140;28;20187;-72
2023/12/25 07:35:14;;;;;;;12.23;2.27;;;;;;;;;;5053891;28;20185;-72
2023/12/25 07:37:41;;;;;;;14.17;3.17;;;;;;;;;;5072621;28;20190;-72
2023/12/25 07:40:08;;;;;;;15.67;2.67;;;;;;;;;;5072429;28;20186;-73
2023/12/25 07:42:35;;;;;;;16.20;2.83;;;;;;;;;;5073107;28;20677;-72
2023/12/25 07:45:02;;;;;;;11.43;1.80;;;;;;;;;;5072877;28;20257;-71
2023/12/25 07:47:29;;;;;;;10.00;2.27;;;;;;;;;;5057059;28;20225;-72
2023/12/25 07:49:55;;;;;;;19.53;3.00;;;;;;;;;;5073618;28;20193;-72
2023/12/25 07:52:22;;;;;;;17.40;2.97;;;;;;;;;;5077360;28;20178;-72
2023/12/25 07:54:49;;;;;;;10.87;2.07;;;;;;;;;;5076919;28;20641;-71
2023/12/25 07:57:16;;;;;;;15.93;2.53;;;;;;;;;;5076136;28;20228;-72
2023/12/25 07:59:43;;;;;;;10.17;2.40;;;;;;;;;;5075902;28;20217;-73
2023/12/25 08:06:10;;;;;;;11.13;2.37;;;;;;;;;;5076848;28;20486;-72
2023/12/25 08:08:38;;;;;;;12.77;2.23;;;;;;;;;;5076807;28;20178;-72
2023/12/25 08:11:06;;;;;;;9.90;2.30;;;;;;;;;;5075678;28;20196;-72
2023/12/25 08:13:36;;;;;;;7.10;1.97;;;;;;;;;;5059033;28;20190;-72
2023/12/25 08:16:02;;;;;;;10.30;2.30;;;;;;;;;;5076935;28;20193;-72
2023/12/25 08:18:47;;;;;;;10.00;2.37;;;;;;;;;;5075686;28;20632;-73
2023/12/25 08:21:17;;;;;;;11.70;2.30;;;;;;;;;;5059100;28;20264;-72
2023/12/25 08:23:44;;;;;;;16.63;2.17;;;;;;;;;;5059170;28;20194;-73
2023/12/25 08:26:11;;;;;;;12.47;3.40;;;;;;;;;;5075832;28;20209;-73
2023/12/25 08:28:40;;;;;;;11.77;2.67;;;;;;;;;;5058615;28;20201;-72
2023/12/25 08:31:07;;;;;;;16.43;2.57;;;;;;;;;;5076378;28;20202;-72
2023/12/25 08:33:35;;;;;;;11.87;2.80;;;;;;;;;;5075844;28;20178;-73
2023/12/25 08:36:03;;;;;;;10.57;1.93;;;;;;;;;;5058696;28;20186;-72
2023/12/25 08:38:30;;;;;;;14.73;2.87;;;;;;;;;;5058645;28;20267;-70
2023/12/25 08:40:57;;;;;;;17.97;2.93;;;;;;;;;;5076732;28;20212;-71
2023/12/25 08:43:24;;;;;;;17.13;2.93;;;;;;;;;;5074842;28;20529;-72
2023/12/25 08:45:51;;;;;;;12.77;3.53;;;;;;;;;;5076138;28;20621;-74
2023/12/25 08:48:20;;;;;;;15.53;3.77;;;;;;;;;;5076603;28;20272;-74
2023/12/25 08:50:47;;;;;;;19.43;3.50;;;;;;;;;;5046757;28;20257;-74
2023/12/25 08:53:14;;;;;;;14.37;2.50;;;;;;;;;;5052309;28;20643;-74
2023/12/25 08:55:43;;;;;;;12.23;2.13;;;;;;;;;;5035877;28;20275;-74
2023/12/25 08:58:11;;;;;;;13.47;2.70;;;;;;;;;;5051398;28;20215;-73
2023/12/25 09:00:38;;;;;;;8.60;1.90;;;;;;;;;;5034651;28;20273;-74
2023/12/25 09:03:06;;;;;;;16.07;2.70;;;;;;;;;;5051402;28;20233;-74
2023/12/25 09:05:34;;;;;;;11.63;2.30;;;;;;;;;;5034893;28;20195;-74
2023/12/25 09:08:02;;;;;;;13.30;2.53;;;;;;;;;;5051401;28;20639;-74
2023/12/25 09:10:29;;;;;;;10.17;2.33;;;;;;;;;;5034626;28;20226;-74
2023/12/25 09:12:56;;;;;;;15.23;2.77;;;;;;;;;;5051033;28;20210;-75
2023/12/25 09:15:23;;;;;;;17.50;3.70;;;;;;;;;;5034494;28;20192;-75
2023/12/25 09:17:50;;;;;;;10.67;2.40;;;;;;;;;;5051028;28;20188;-75
2023/12/25 09:20:17;;;;;;;8.43;2.20;;;;;;;;;;5051081;28;20215;-74
2023/12/25 09:22:44;;;;;;;11.80;2.50;;;;;;;;;;5051423;28;20236;-74
2023/12/25 09:25:11;;;;;;;9.83;1.70;;;;;;;;;;5034375;28;20180;-75
2023/12/25 09:27:38;;;;;;;11.53;1.60;;;;;;;;;;5034373;28;20183;-74
2023/12/25 09:30:25;;;;;;;9.60;1.90;;;;;;;;;;5048523;28;20156;-75
2023/12/25 09:32:54;;;;;;;11.37;2.50;;;;;;;;;;5034912;28;20195;-75
2023/12/25 09:35:40;;;;;;;14.17;2.30;;;;;;;;;;5051302;28;20561;-74
2023/12/25 09:38:08;;;;;;;11.73;1.90;;;;;;;;;;5035201;28;20218;-75
2023/12/25 09:40:35;;;;;;;6.67;1.93;;;;;;;;;;5034149;28;20196;-75
2023/12/25 09:43:04;;;;;;;8.93;1.37;;;;;;;;;;5035495;28;20183;-75
2023/12/25 09:45:37;;;;;;;9.40;1.87;;;;;;;;;;5034419;28;20700;-74
2023/12/25 09:48:05;;;;;;;12.30;2.20;;;;;;;;;;5051022;28;20495;-75
2023/12/25 09:50:32;;;;;;;6.53;1.80;;;;;;;;;;5056446;28;20223;-75
2023/12/25 09:53:00;;;;;;;7.27;1.93;;;;;;;;;;5054170;28;20595;-74
2023/12/25 09:55:30;;;;;;;9.23;1.77;;;;;;;;;;5071340;28;20510;-75
2023/12/25 09:57:58;;;;;;;11.23;2.30;;;;;;;;;;5069911;28;20525;-75
2023/12/25 10:00:26;;;;;;;12.20;2.00;;;;;;;;;;5069469;28;20741;-76
2023/12/25 10:02:54;;;;;;;12.13;2.37;;;;;;;;;;5070436;28;20191;-74
2023/12/25 10:05:22;;;;;;;11.03;1.87;;;;;;;;;;5050680;28;20222;-74
2023/12/25 10:07:49;;;;;;;10.23;1.83;;;;;;;;;;5053877;28;20194;-73
2023/12/25 10:10:33;;;;;;;9.67;1.47;;;;;;;;;;5054681;28;20158;-74
2023/12/25 10:13:01;;;;;;;8.43;2.07;;;;;;;;;;5072896;28;20186;-73
2023/12/25 10:15:28;;;;;;;8.67;1.60;;;;;;;;;;5056829;28;20247;-75
2023/12/25 10:18:06;;;;;;;9.70;1.80;;;;;;;;;;5072997;28;20186;-74
2023/12/25 10:20:33;;;;;;;8.40;1.77;;;;;;;;;;5056817;28;20218;-74
2023/12/25 10:23:00;;;;;;;12.60;2.33;;;;;;;;;;5056460;28;20210;-74
2023/12/25 10:25:44;;;;;;;6.37;1.67;;;;;;;;;;5073303;28;20242;-75
2023/12/25 10:28:30;;;;;;;10.87;2.00;;;;;;;;;;5073353;28;20151;-74
2023/12/25 10:30:58;;;;;;;8.30;2.40;;;;;;;;;;5073913;28;20223;-73
2023/12/25 10:33:43;;;;;;;9.87;2.33;;;;;;;;;;5073895;28;20193;-74
2023/12/25 10:36:10;;;;;;;8.97;2.10;;;;;;;;;;5056302;28;20625;-74
2023/12/25 10:38:42;;;;;;;10.83;2.40;;;;;;;;;;5056422;28;20221;-74
2023/12/25 10:41:35;;;;;;;7.93;2.87;;;;;;;;;;5040000;28;20193;-74
2023/12/25 10:44:03;;;;;;;11.23;3.20;;;;;;;;;;5070865;28;20186;-75
2023/12/25 10:46:38;;;;;;;10.60;2.07;;;;;;;;;;5072600;28;20186;-74
2023/12/25 10:49:07;;;;;;;7.03;1.77;;;;;;;;;;5040938;28;20275;-74
2023/12/25 10:51:46;;;;;;;10.27;2.17;;;;;;;;;;5072533;28;20230;-75
2023/12/25 10:54:13;;;;;;;14.13;2.60;;;;;;;;;;5073183;28;20515;-74
2023/12/25 10:56:42;;;;;;;10.40;2.17;;;;;;;;;;5072888;28;20181;-74
2023/12/25 10:59:16;;;;;;;6.70;1.50;;;;;;;;;;5056365;28;20209;-74
2023/12/25 11:01:44;;;;;;;8.63;1.93;;;;;;;;;;5072765;28;20232;-74
2023/12/25 11:04:15;;;;;;;13.53;2.23;;;;;;;;;;5072588;28;20206;-75
2023/12/25 11:06:43;;;;;;;11.43;2.20;;;;;;;;;;5057062;28;20262;-74
2023/12/25 11:09:27;;;;;;;8.23;1.57;;;;;;;;;;5045121;28;20181;-75
2023/12/25 11:11:55;;;;;;;4.53;1.37;;;;;;;;;;5076947;28;20186;-75
2023/12/25 11:14:22;;;;;;;7.70;1.43;;;;;;;;;;5061541;28;20190;-74
2023/12/25 11:16:52;;;;;;;8.57;2.10;;;;;;;;;;5073591;28;20190;-76
2023/12/25 11:19:18;;;;;;;7.73;2.03;;;;;;;;;;5060348;28;20656;-75
2023/12/25 11:21:46;;;;;;;7.17;1.77;;;;;;;;;;5060246;28;20304;-74
2023/12/25 11:24:13;;;;;;;11.77;1.73;;;;;;;;;;5060145;28;20642;-74
2023/12/25 11:26:41;;;;;;;11.97;2.27;;;;;;;;;;5060069;28;20549;-74
2023/12/25 11:29:10;;;;;;;5.83;1.67;;;;;;;;;;5077978;28;20185;-74
2023/12/25 11:31:46;;;;;;;11.20;2.23;;;;;;;;;;5044203;28;20197;-75
2023/12/25 11:34:33;;;;;;;5.50;1.50;;;;;;;;;;5062589;28;20208;-75
2023/12/25 11:37:03;;;;;;;8.70;1.53;;;;;;;;;;5060015;28;20186;-73
2023/12/25 11:39:31;;;;;;;9.73;1.80;;;;;;;;;;5061071;28;20214;-74
2023/12/25 11:41:58;;;;;;;14.43;2.53;;;;;;;;;;5059532;28;20186;-75
2023/12/25 11:44:32;;;;;;;7.57;1.80;;;;;;;;;;5059707;28;20201;-73
2023/12/25 11:47:00;;;;;;;12.70;2.77;;;;;;;;;;5059598;28;20239;-74
2023/12/25 11:49:27;;;;;;;12.93;2.60;;;;;;;;;;5075971;28;20541;-74
2023/12/25 11:51:54;;;;;;;9.73;2.43;;;;;;;;;;5059538;28;20275;-75
2023/12/25 11:54:21;;;;;;;9.83;2.17;;;;;;;;;;5060074;28;20197;-75
2023/12/25 11:56:48;;;;;;;9.80;2.40;;;;;;;;;;5077675;28;20637;-75
2023/12/25 11:59:15;;;;;;;9.00;2.00;;;;;;;;;;5075894;28;20281;-74
2023/12/25 12:01:43;;;;;;;10.30;1.73;;;;;;;;;;5059556;28;20186;-74
2023/12/25 12:04:10;;;;;;;9.70;2.27;;;;;;;;;;5075994;28;20189;-75
2023/12/25 12:06:38;;;;;;;8.83;2.27;;;;;;;;;;5059610;28;20190;-74
2023/12/25 12:09:06;;;;;;;9.37;2.10;;;;;;;;;;5059933;28;20186;-74
2023/12/25 12:11:34;;;;;;;10.63;2.40;;;;;;;;;;5059862;28;20189;-75
2023/12/25 12:14:02;;;;;;;12.33;1.70;;;;;;;;;;5076733;28;20561;-75
2023/12/25 12:16:29;;;;;;;12.27;2.77;;;;;;;;;;5060123;28;20208;-74
2023/12/25 12:18:56;;;;;;;13.70;2.23;;;;;;;;;;5059468;28;20186;-75
2023/12/25 12:21:23;;;;;;;5.97;2.07;;;;;;;;;;5058474;28;20209;-75
2023/12/25 12:23:50;;;;;;;16.37;2.70;;;;;;;;;;5075275;28;20186;-74
2023/12/25 12:26:17;;;;;;;8.37;2.63;;;;;;;;;;5076687;28;20186;-73
2023/12/25 12:28:44;;;;;;;9.70;1.93;;;;;;;;;;5075347;28;20627;-74
2023/12/25 12:31:29;;;;;;;14.80;2.40;;;;;;;;;;5061376;28;20158;-81
2023/12/25 12:33:56;;;;;;;12.17;2.30;;;;;;;;;;5075104;28;20178;-68
2023/12/25 12:36:40;;;;;;;14.73;2.20;;;;;;;;;;5076795;28;20212;-69
2023/12/25 12:39:07;;;;;;;12.87;2.93;;;;;;;;;;5075108;28;20205;-72
2023/12/25 12:41:35;;;;;;;15.43;2.73;;;;;;;;;;5058460;28;20706;-73
2023/12/25 12:44:02;;;;;;;11.93;2.60;;;;;;;;;;5058635;28;20190;-73
2023/12/25 12:46:28;;;;;;;10.60;2.20;;;;;;;;;;5075992;28;20194;-73
2023/12/25 12:48:56;;;;;;;14.30;2.37;;;;;;;;;;5058540;28;20272;-74
2023/12/25 12:51:25;;;;;;;13.47;2.37;;;;;;;;;;5058409;28;20228;-73
2023/12/25 12:53:52;;;;;;;13.23;2.67;;;;;;;;;;5058470;28;20605;-78
2023/12/25 12:56:19;;;;;;;4.57;1.40;;;;;;;;;;5057383;28;20675;-74
2023/12/25 12:58:47;;;;;;;12.37;2.60;;;;;;;;;;5075456;28;20184;-74
2023/12/25 13:01:15;;;;;;;10.67;2.07;;;;;;;;;;5041688;28;20202;-73
2023/12/25 13:03:59;;;;;;;16.13;3.23;;;;;;;;;;5083514;28;20237;-72
2023/12/25 13:06:26;;;;;;;9.03;1.40;;;;;;;;;;5061404;28;20196;-73
2023/12/25 13:09:10;;;;;;;18.27;2.40;;;;;;;;;;5080606;28;20176;-74
2023/12/25 13:11:37;;;;;;;18.47;2.73;;;;;;;;;;5094977;28;20185;-72
2023/12/25 13:14:04;;;;;;;7.17;1.77;;;;;;;;;;5094473;28;20185;-72
2023/12/25 13:16:31;;;;;;;6.20;1.70;;;;;;;;;;5096187;28;20181;-73
2023/12/25 13:18:58;;;;;;;16.03;2.77;;;;;;;;;;5094341;28;20205;-73
2023/12/25 13:21:25;;;;;;;9.53;2.77;;;;;;;;;;5094631;28;20236;-73
2023/12/25 13:23:52;;;;;;;11.60;2.23;;;;;;;;;;5077704;28;20192;-73
2023/12/25 13:26:19;;;;;;;9.80;2.20;;;;;;;;;;5061398;28;20192;-72
2023/12/25 13:28:46;;;;;;;14.57;2.10;;;;;;;;;;5054809;28;20190;-72
2023/12/25 13:31:13;;;;;;;16.33;2.97;;;;;;;;;;5070634;28;20608;-72
2023/12/25 13:33:42;;;;;;;11.67;3.23;;;;;;;;;;5037524;28;20204;-72
2023/12/25 13:36:11;;;;;;;11.03;2.47;;;;;;;;;;5037894;28;20191;-74
2023/12/25 13:38:39;;;;;;;11.20;2.03;;;;;;;;;;5054990;28;20586;-74
2023/12/25 13:48:53;;;;;;;5.80;1.70;;;;;;;;;;5054998;28;20177;-73
2023/12/25 13:51:21;;;;;;;8.30;1.97;;;;;;;;;;5055031;28;20219;-72
2023/12/25 13:57:40;;;;;;;13.00;2.40;;;;;;;;;;5055406;28;20550;-73
2023/12/25 14:00:09;;;;;;;10.03;2.23;;;;;;;;;;5057756;28;20204;-73
2023/12/25 14:02:36;;;;;;;8.83;2.27;;;;;;;;;;5057100;28;20574;-73
2023/12/25 14:05:03;;;;;;;10.70;2.00;;;;;;;;;;5052891;28;20221;-75
2023/12/25 14:07:47;;;;;;;9.93;2.13;;;;;;;;;;5053787;28;20151;-74
2023/12/25 14:10:13;;;;;;;10.70;2.40;;;;;;;;;;5070078;28;20214;-74
2023/12/25 14:12:40;;;;;;;13.57;2.87;;;;;;;;;;5053379;28;20196;-73
2023/12/25 14:15:10;;;;;;;10.53;2.20;;;;;;;;;;5069491;28;20183;-74
2023/12/25 14:17:37;;;;;;;7.73;1.97;;;;;;;;;;5069791;28;20634;-74
2023/12/25 14:20:08;;;;;;;12.50;2.97;;;;;;;;;;5072806;28;20210;-73
2023/12/25 14:22:39;;;;;;;6.17;1.83;;;;;;;;;;5056913;28;20202;-73
2023/12/25 14:25:06;;;;;;;12.40;2.20;;;;;;;;;;5074073;28;20229;-73
2023/12/25 14:27:33;;;;;;;15.10;1.93;;;;;;;;;;5073952;28;20196;-73
2023/12/25 14:30:00;;;;;;;12.50;2.00;;;;;;;;;;5074755;28;20186;-75
2023/12/25 14:32:27;;;;;;;9.03;1.73;;;;;;;;;;5073623;28;20197;-73
2023/12/25 14:34:55;;;;;;;11.37;2.23;;;;;;;;;;5073179;28;20182;-73
2023/12/25 14:37:22;;;;;;;7.80;1.63;;;;;;;;;;5056214;28;20186;-73
2023/12/25 14:40:06;;;;;;;11.77;3.17;;;;;;;;;;5057676;28;20198;-73
2023/12/25 14:42:33;;;;;;;9.73;1.83;;;;;;;;;;5056367;28;20183;-74
2023/12/25 14:45:17;;;;;;;5.27;1.20;;;;;;;;;;5058826;28;20161;-73
2023/12/25 14:47:44;;;;;;;6.67;1.73;;;;;;;;;;5056175;28;20526;-72
2023/12/25 14:50:12;;;;;;;10.13;1.80;;;;;;;;;;5055867;28;20330;-74
2023/12/25 14:52:38;;;;;;;10.43;1.80;;;;;;;;;;5056131;28;20189;-73
2023/12/25 14:55:05;;;;;;;10.07;2.57;;;;;;;;;;5073952;28;20209;-73
2023/12/25 14:57:32;;;;;;;10.47;2.13;;;;;;;;;;5055746;28;20198;-74
2023/12/25 14:59:59;;;;;;;14.43;2.33;;;;;;;;;;5039218;28;20549;-73
2023/12/25 15:02:26;;;;;;;10.97;2.27;;;;;;;;;;5056024;28;20700;-74
2023/12/25 15:04:59;;;;;;;11.13;2.53;;;;;;;;;;5055707;28;20193;-73
2023/12/25 15:07:27;;;;;;;10.57;2.33;;;;;;;;;;5040629;28;20652;-73
2023/12/25 15:09:54;;;;;;;18.67;2.50;;;;;;;;;;5039812;28;20649;-73
2023/12/25 15:12:20;;;;;;;13.63;2.30;;;;;;;;;;5055783;28;20502;-73
2023/12/25 15:14:47;;;;;;;8.83;2.20;;;;;;;;;;5055906;28;20189;-73
2023/12/25 15:17:15;;;;;;;11.63;2.13;;;;;;;;;;5039871;28;20182;-73
2023/12/25 15:19:41;;;;;;;8.03;2.13;;;;;;;;;;5055903;28;20186;-73
2023/12/25 15:22:25;;;;;;;10.03;2.23;;;;;;;;;;5073445;28;20206;-73
2023/12/25 15:24:52;;;;;;;12.50;2.60;;;;;;;;;;5073531;28;20231;-73
2023/12/25 15:27:19;;;;;;;4.47;1.50;;;;;;;;;;5055844;28;20179;-73
2023/12/25 15:29:46;;;;;;;8.23;2.30;;;;;;;;;;5055774;28;20600;-73
2023/12/25 15:32:13;;;;;;;10.40;2.10;;;;;;;;;;5055994;28;20184;-73
2023/12/25 15:34:41;;;;;;;9.70;2.43;;;;;;;;;;5039830;28;20197;-73
2023/12/25 15:37:08;;;;;;;12.33;2.27;;;;;;;;;;5055758;28;20526;-73
2023/12/25 15:39:35;;;;;;;10.90;2.53;;;;;;;;;;5038823;28;20181;-73
2023/12/25 15:42:03;;;;;;;11.83;2.60;;;;;;;;;;5039211;28;20194;-73